createdAt,value
2019-02-28T00:02:56.078Z,59.16
2019-02-28T00:09:00.907Z,59.42
2019-02-28T00:15:08.652Z,58.40
2019-02-28T00:21:13.198Z,58.30
2019-02-28T00:27:20.966Z,58.00
2019-02-28T00:33:24.050Z,58.21
2019-02-28T00:39:31.369Z,58.96
2019-02-28T00:45:37.178Z,59.21
2019-02-28T00:51:41.660Z,59.43
2019-02-28T00:57:46.258Z,60.20
2019-02-28T01:03:50.804Z,60.62
2019-02-28T01:09:55.376Z,61.76
2019-02-28T01:15:59.968Z,62.46
2019-02-28T01:22:04.589Z,61.72
2019-02-28T01:28:09.151Z,62.15
2019-02-28T01:34:13.704Z,62.89
2019-02-28T01:40:18.271Z,62.64
2019-02-28T01:46:22.922Z,62.85
2019-02-28T01:52:27.513Z,62.66
2019-02-28T01:58:32.224Z,62.78
2019-02-28T02:04:36.845Z,62.43
2019-02-28T02:10:41.480Z,62.43
2019-02-28T02:16:46.051Z,61.81
2019-02-28T02:22:50.612Z,61.66
2019-02-28T02:28:55.166Z,61.71
2019-02-28T02:35:06.106Z,61.87
2019-02-28T02:41:06.276Z,62.09
2019-02-28T02:47:10.940Z,62.35
2019-02-28T02:53:15.504Z,62.92
2019-02-28T02:59:20.065Z,62.90
2019-02-28T03:05:24.663Z,63.23
2019-02-28T03:11:29.362Z,64.10
2019-02-28T03:17:33.924Z,63.92
2019-02-28T03:23:40.432Z,64.52
2019-02-28T03:29:44.905Z,65.37
2019-02-28T03:35:49.497Z,66.13
2019-02-28T03:41:54.262Z,67.65
2019-02-28T03:47:59.852Z,68.52
2019-02-28T03:54:04.823Z,68.16
2019-02-28T04:00:32.613Z,68.60
2019-02-28T04:06:32.269Z,68.63
2019-02-28T04:12:44.867Z,69.13
2019-02-28T04:18:45.894Z,69.68
2019-02-28T04:24:49.506Z,69.98
2019-02-28T04:30:54.090Z,70.81
2019-02-28T04:36:58.740Z,70.97
2019-02-28T04:43:03.296Z,71.59
2019-02-28T04:49:07.861Z,72.12
2019-02-28T04:55:12.865Z,72.22
2019-02-28T05:01:17.492Z,72.99
2019-02-28T05:07:22.167Z,73.51
2019-02-28T05:13:26.768Z,74.15
2019-02-28T05:19:32.279Z,72.95
2019-02-28T05:25:37.882Z,74.66
2019-02-28T05:31:42.455Z,74.41
2019-02-28T05:37:48.454Z,75.13
2019-02-28T05:43:53.152Z,75.80
2019-02-28T05:49:59.461Z,74.11
2019-02-28T05:56:04.078Z,74.37
2019-02-28T06:02:08.646Z,75.45
2019-02-28T06:08:13.217Z,77.74
2019-02-28T06:14:17.771Z,76.52
2019-02-28T06:20:22.343Z,75.46
2019-02-28T06:26:26.911Z,77.35
2019-02-28T06:32:31.933Z,78.98
2019-02-28T06:38:36.471Z,79.42
2019-02-28T06:44:41.043Z,77.52
2019-02-28T06:50:45.714Z,79.96
2019-02-28T06:56:50.270Z,81.54
2019-02-28T07:02:54.850Z,78.13
2019-02-28T07:09:02.385Z,78.93
2019-02-28T07:15:07.474Z,79.41
2019-02-28T07:21:12.032Z,79.14
2019-02-28T07:27:16.750Z,79.90
2019-02-28T07:33:21.351Z,80.51
2019-02-28T07:39:26.147Z,80.73
2019-02-28T07:45:33.091Z,80.32
2019-02-28T07:51:37.131Z,80.60
2019-02-28T07:57:41.732Z,79.50
2019-02-28T08:03:46.295Z,78.23
2019-02-28T08:09:50.868Z,76.80
2019-02-28T08:15:56.881Z,75.82
2019-02-28T08:22:02.412Z,74.14
2019-02-28T08:28:06.995Z,73.47
2019-02-28T08:34:11.688Z,72.57
2019-02-28T08:40:22.856Z,72.30
2019-02-28T08:46:27.485Z,72.02
2019-02-28T08:52:32.168Z,70.37
2019-02-28T08:58:37.624Z,69.05
2019-02-28T09:04:44.879Z,68.08
2019-02-28T09:10:49.399Z,66.82
2019-02-28T09:16:54.039Z,65.01
2019-02-28T09:23:02.238Z,65.61
2019-02-28T09:29:05.083Z,64.61
2019-02-28T09:35:13.844Z,62.94
2019-02-28T09:41:16.208Z,64.11
2019-02-28T09:47:23.363Z,63.36
2019-02-28T09:53:27.320Z,63.70
2019-02-28T09:59:37.501Z,64.06
2019-02-28T10:05:39.051Z,63.35
2019-02-28T10:11:44.696Z,62.86
2019-02-28T10:17:49.605Z,62.41
2019-02-28T10:23:57.060Z,61.09
2019-02-28T10:30:00.672Z,57.45
2019-02-28T10:36:05.493Z,57.47
2019-02-28T10:42:10.203Z,55.70
2019-02-28T10:48:14.801Z,53.89
2019-02-28T10:54:19.430Z,51.95
2019-02-28T11:00:33.651Z,53.22
2019-02-28T11:06:41.508Z,52.02
2019-02-28T11:12:46.213Z,51.84
2019-02-28T11:18:50.931Z,50.59
2019-02-28T11:25:00.478Z,50.39
2019-02-28T11:31:02.407Z,50.69
2019-02-28T11:37:08.960Z,49.97
2019-02-28T11:43:14.414Z,52.02
2019-02-28T11:49:19.026Z,50.62
2019-02-28T11:55:24.090Z,51.14
2019-02-28T12:01:28.820Z,49.76
2019-02-28T12:07:34.876Z,50.74
2019-02-28T12:13:39.913Z,49.56
2019-02-28T12:19:47.656Z,49.29
2019-02-28T12:25:51.221Z,48.53
2019-02-28T12:31:55.799Z,46.22
2019-02-28T12:38:01.102Z,43.52
2019-02-28T12:44:05.825Z,43.99
2019-02-28T12:50:14.020Z,42.94
2019-02-28T12:56:18.583Z,39.49
2019-02-28T13:02:23.136Z,41.00
2019-02-28T13:08:29.603Z,41.85
2019-02-28T13:14:36.799Z,40.79
2019-02-28T13:20:41.228Z,39.25
2019-02-28T13:26:45.876Z,38.27
2019-02-28T13:32:50.520Z,39.50
2019-02-28T13:38:55.889Z,38.40
2019-02-28T13:45:01.462Z,37.73
2019-02-28T13:51:08.578Z,39.70
2019-02-28T13:57:13.454Z,42.14
2019-02-28T14:03:18.030Z,42.85
2019-02-28T14:09:23.106Z,43.39
2019-02-28T14:15:38.206Z,41.99
2019-02-28T14:21:42.933Z,37.25
2019-02-28T14:27:48.485Z,36.58
2019-02-28T14:33:54.493Z,37.90
2019-02-28T14:40:00.011Z,39.99
2019-02-28T14:46:05.289Z,43.88
2019-02-28T14:52:09.999Z,46.40
2019-02-28T14:58:14.581Z,47.43
2019-02-28T15:04:19.144Z,49.04
2019-02-28T15:10:26.888Z,50.91
2019-02-28T15:16:32.051Z,52.58
2019-02-28T15:22:36.622Z,51.64
2019-02-28T15:28:41.204Z,54.51
2019-02-28T15:34:45.833Z,56.29
2019-02-28T15:40:50.641Z,58.21
2019-02-28T15:46:55.769Z,58.71
2019-02-28T15:53:01.207Z,60.01
2019-02-28T15:59:05.908Z,60.04
2019-02-28T16:05:10.967Z,60.29
2019-02-28T16:11:15.686Z,60.31
2019-02-28T16:17:20.328Z,60.51
2019-02-28T16:23:27.531Z,60.67
2019-02-28T16:29:31.536Z,61.72
2019-02-28T16:35:36.262Z,62.79
2019-02-28T16:41:40.894Z,63.13
2019-02-28T16:47:45.496Z,63.84
2019-02-28T16:53:50.081Z,64.09
2019-02-28T16:59:54.682Z,64.55
2019-02-28T17:06:01.619Z,64.84
2019-02-28T17:12:07.581Z,65.56
2019-02-28T17:18:13.892Z,66.32
2019-02-28T17:24:18.470Z,66.90
2019-02-28T17:30:24.824Z,66.73
2019-02-28T17:36:29.895Z,66.27
2019-02-28T17:42:34.609Z,67.15
2019-02-28T17:49:15.625Z,67.28
2019-02-28T17:55:45.613Z,67.80
2019-02-28T18:02:32.764Z,68.13
2019-02-28T18:09:00.042Z,68.34
2019-02-28T18:15:30.142Z,68.36
2019-02-28T18:21:57.479Z,68.63
2019-02-28T18:28:27.759Z,69.17
2019-02-28T18:34:32.849Z,69.12
2019-02-28T18:40:37.511Z,69.00
2019-02-28T18:46:42.092Z,69.55
2019-02-28T18:52:46.666Z,69.45
2019-02-28T18:58:51.249Z,69.10
2019-02-28T19:04:55.980Z,70.80
2019-02-28T19:11:00.722Z,72.36
2019-02-28T19:17:05.428Z,73.98
2019-02-28T19:23:10.075Z,75.27
2019-02-28T19:29:16.170Z,78.02
2019-02-28T19:35:20.879Z,78.25
2019-02-28T19:41:25.530Z,80.08
2019-02-28T19:47:30.523Z,80.43
2019-02-28T19:53:35.182Z,79.82
2019-02-28T19:59:39.739Z,79.28
2019-02-28T20:05:44.482Z,79.01
2019-02-28T20:11:49.121Z,79.04
2019-02-28T20:17:54.037Z,78.85
2019-02-28T20:23:59.003Z,78.71
2019-02-28T20:30:05.621Z,78.14
2019-02-28T20:36:10.297Z,77.84
2019-02-28T20:42:14.913Z,77.99
2019-02-28T20:48:19.771Z,78.61
2019-02-28T20:54:24.331Z,79.80
2019-02-28T21:00:29.224Z,79.99
2019-02-28T21:06:35.400Z,80.09
2019-02-28T21:12:40.131Z,80.06
2019-02-28T21:18:44.866Z,80.97
2019-02-28T21:24:49.533Z,80.82
2019-02-28T21:30:54.126Z,80.40
2019-02-28T21:36:58.906Z,79.93
2019-02-28T21:43:03.753Z,79.45
2019-02-28T21:49:08.388Z,79.67
2019-02-28T21:55:17.917Z,79.70
2019-02-28T22:01:22.501Z,79.20
2019-02-28T22:07:27.886Z,79.00
2019-02-28T22:13:32.456Z,78.80
2019-02-28T22:19:37.405Z,78.91
2019-02-28T22:25:42.015Z,78.41
2019-02-28T22:31:57.143Z,77.61
2019-02-28T22:38:01.842Z,77.89
2019-02-28T22:44:06.574Z,77.93
2019-02-28T22:50:11.381Z,77.58
2019-02-28T22:56:15.970Z,77.52
2019-02-28T23:02:21.174Z,77.61
2019-02-28T23:08:25.805Z,77.38
2019-02-28T23:14:30.472Z,77.95
2019-02-28T23:20:35.069Z,77.70
2019-02-28T23:27:12.229Z,77.21
2019-02-28T23:33:17.146Z,77.30
2019-02-28T23:39:21.738Z,76.83
2019-02-28T23:45:26.385Z,77.14
2019-02-28T23:51:31.108Z,77.48
2019-02-28T23:57:35.755Z,77.26
